sensor_id;sensor_type;location;lat;lon;timestamp;temperature;humidity
81902;DHT22;71369;50.796;3.290;2024-03-02T00:00:23;6.10;99.90
81902;DHT22;71369;50.796;3.290;2024-03-02T00:02:52;6.10;99.90
81902;DHT22;71369;50.796;3.290;2024-03-02T00:05:20;6.10;99.90
81902;DHT22;71369;50.796;3.290;2024-03-02T00:07:58;6.10;99.90
81902;DHT22;71369;50.796;3.290;2024-03-02T00:10:37;6.10;99.90
81902;DHT22;71369;50.796;3.290;2024-03-02T00:13:08;6.10;99.90
81902;DHT22;71369;50.796;3.290;2024-03-02T00:18:09;6.00;99.90
81902;DHT22;71369;50.796;3.290;2024-03-02T00:20:35;6.00;99.90
81902;DHT22;71369;50.796;3.290;2024-03-02T00:23:09;5.90;99.90
81902;DHT22;71369;50.796;3.290;2024-03-02T00:25:46;5.90;99.90
81902;DHT22;71369;50.796;3.290;2024-03-02T00:28:25;5.90;99.90
81902;DHT22;71369;50.796;3.290;2024-03-02T00:31:03;5.90;99.90
81902;DHT22;71369;50.796;3.290;2024-03-02T00:33:43;5.80;99.90
81902;DHT22;71369;50.796;3.290;2024-03-02T00:36:25;5.80;99.90
81902;DHT22;71369;50.796;3.290;2024-03-02T00:38:54;5.80;99.90
81902;DHT22;71369;50.796;3.290;2024-03-02T00:41:30;5.80;99.90
81902;DHT22;71369;50.796;3.290;2024-03-02T00:44:01;5.80;99.90
81902;DHT22;71369;50.796;3.290;2024-03-02T00:46:36;5.80;99.90
81902;DHT22;71369;50.796;3.290;2024-03-02T00:51:36;5.80;99.90
81902;DHT22;71369;50.796;3.290;2024-03-02T00:54:04;5.80;99.90
81902;DHT22;71369;50.796;3.290;2024-03-02T00:56:30;5.80;99.90
81902;DHT22;71369;50.796;3.290;2024-03-02T00:58:59;5.90;99.90
81902;DHT22;71369;50.796;3.290;2024-03-02T01:01:24;5.90;99.90
81902;DHT22;71369;50.796;3.290;2024-03-02T01:03:52;5.90;99.90
81902;DHT22;71369;50.796;3.290;2024-03-02T01:06:18;5.80;99.90
81902;DHT22;71369;50.796;3.290;2024-03-02T01:08:44;5.80;99.90
81902;DHT22;71369;50.796;3.290;2024-03-02T01:11:10;5.80;99.90
81902;DHT22;71369;50.796;3.290;2024-03-02T01:13:36;5.70;99.90
81902;DHT22;71369;50.796;3.290;2024-03-02T01:16:02;5.60;99.90
81902;DHT22;71369;50.796;3.290;2024-03-02T01:18:28;5.70;99.90
81902;DHT22;71369;50.796;3.290;2024-03-02T01:20:54;5.60;99.90
81902;DHT22;71369;50.796;3.290;2024-03-02T01:23:24;5.60;99.90
81902;DHT22;71369;50.796;3.290;2024-03-02T01:25:51;5.60;99.90
81902;DHT22;71369;50.796;3.290;2024-03-02T01:28:18;5.60;99.90
81902;DHT22;71369;50.796;3.290;2024-03-02T01:30:44;5.60;99.90
81902;DHT22;71369;50.796;3.290;2024-03-02T01:33:10;5.60;99.90
81902;DHT22;71369;50.796;3.290;2024-03-02T01:35:36;5.60;99.90
81902;DHT22;71369;50.796;3.290;2024-03-02T01:38:04;5.60;99.90
81902;DHT22;71369;50.796;3.290;2024-03-02T01:40:39;5.60;99.90
81902;DHT22;71369;50.796;3.290;2024-03-02T01:43:05;5.60;99.90
81902;DHT22;71369;50.796;3.290;2024-03-02T01:45:31;5.60;99.90
81902;DHT22;71369;50.796;3.290;2024-03-02T01:47:57;5.50;99.90
81902;DHT22;71369;50.796;3.290;2024-03-02T01:50:32;5.50;99.90
81902;DHT22;71369;50.796;3.290;2024-03-02T01:52:59;5.50;99.90
81902;DHT22;71369;50.796;3.290;2024-03-02T01:55:25;5.50;99.90
81902;DHT22;71369;50.796;3.290;2024-03-02T01:57:51;5.40;99.90
81902;DHT22;71369;50.796;3.290;2024-03-02T02:00:18;5.40;99.90
81902;DHT22;71369;50.796;3.290;2024-03-02T02:02:45;5.40;99.90
81902;DHT22;71369;50.796;3.290;2024-03-02T02:05:11;5.50;99.90
81902;DHT22;71369;50.796;3.290;2024-03-02T02:07:38;5.50;99.90
81902;DHT22;71369;50.796;3.290;2024-03-02T02:10:04;5.50;99.90
81902;DHT22;71369;50.796;3.290;2024-03-02T02:12:29;5.50;99.90
81902;DHT22;71369;50.796;3.290;2024-03-02T02:14:55;5.40;99.90
81902;DHT22;71369;50.796;3.290;2024-03-02T02:17:21;5.40;99.90
81902;DHT22;71369;50.796;3.290;2024-03-02T02:19:46;5.40;99.90
81902;DHT22;71369;50.796;3.290;2024-03-02T02:22:15;5.40;99.90
81902;DHT22;71369;50.796;3.290;2024-03-02T02:24:41;5.30;99.90
81902;DHT22;71369;50.796;3.290;2024-03-02T02:27:10;5.40;99.90
81902;DHT22;71369;50.796;3.290;2024-03-02T02:29:38;5.40;99.90
81902;DHT22;71369;50.796;3.290;2024-03-02T02:32:03;5.50;99.90
81902;DHT22;71369;50.796;3.290;2024-03-02T02:34:31;5.60;99.90
81902;DHT22;71369;50.796;3.290;2024-03-02T02:36:57;5.60;99.90
81902;DHT22;71369;50.796;3.290;2024-03-02T02:39:23;5.70;99.90
81902;DHT22;71369;50.796;3.290;2024-03-02T02:41:48;5.60;99.90
81902;DHT22;71369;50.796;3.290;2024-03-02T02:44:14;5.60;99.90
81902;DHT22;71369;50.796;3.290;2024-03-02T02:46:40;5.60;99.90
81902;DHT22;71369;50.796;3.290;2024-03-02T02:49:06;5.60;99.90
81902;DHT22;71369;50.796;3.290;2024-03-02T02:51:32;5.50;99.90
81902;DHT22;71369;50.796;3.290;2024-03-02T02:53:58;5.50;99.90
81902;DHT22;71369;50.796;3.290;2024-03-02T02:56:23;5.50;99.90
81902;DHT22;71369;50.796;3.290;2024-03-02T02:58:49;5.50;99.90
81902;DHT22;71369;50.796;3.290;2024-03-02T03:01:15;5.50;99.90
81902;DHT22;71369;50.796;3.290;2024-03-02T03:03:46;5.40;99.90
81902;DHT22;71369;50.796;3.290;2024-03-02T03:06:12;5.40;99.90
81902;DHT22;71369;50.796;3.290;2024-03-02T03:08:38;5.40;99.90
81902;DHT22;71369;50.796;3.290;2024-03-02T03:11:04;5.30;99.90
81902;DHT22;71369;50.796;3.290;2024-03-02T03:13:34;5.40;99.90
81902;DHT22;71369;50.796;3.290;2024-03-02T03:16:00;5.40;99.90
81902;DHT22;71369;50.796;3.290;2024-03-02T03:18:26;5.30;99.90
81902;DHT22;71369;50.796;3.290;2024-03-02T03:20:51;5.30;99.90
81902;DHT22;71369;50.796;3.290;2024-03-02T03:23:19;5.30;99.90
81902;DHT22;71369;50.796;3.290;2024-03-02T03:25:46;5.20;99.90
81902;DHT22;71369;50.796;3.290;2024-03-02T03:28:11;5.20;99.90
81902;DHT22;71369;50.796;3.290;2024-03-02T03:30:38;5.30;99.90
81902;DHT22;71369;50.796;3.290;2024-03-02T03:33:06;5.30;99.90
81902;DHT22;71369;50.796;3.290;2024-03-02T03:35:32;5.20;99.90
81902;DHT22;71369;50.796;3.290;2024-03-02T03:37:58;5.30;99.90
81902;DHT22;71369;50.796;3.290;2024-03-02T03:40:24;5.30;99.90
81902;DHT22;71369;50.796;3.290;2024-03-02T03:42:49;5.40;99.90
81902;DHT22;71369;50.796;3.290;2024-03-02T03:45:16;5.30;99.90
81902;DHT22;71369;50.796;3.290;2024-03-02T03:47:41;5.30;99.90
81902;DHT22;71369;50.796;3.290;2024-03-02T03:50:07;5.30;99.90
81902;DHT22;71369;50.796;3.290;2024-03-02T03:52:33;5.30;99.90
81902;DHT22;71369;50.796;3.290;2024-03-02T03:54:59;5.30;99.90
81902;DHT22;71369;50.796;3.290;2024-03-02T03:57:25;5.40;99.90
81902;DHT22;71369;50.796;3.290;2024-03-02T03:59:52;5.40;99.90
81902;DHT22;71369;50.796;3.290;2024-03-02T04:02:17;5.40;99.90
81902;DHT22;71369;50.796;3.290;2024-03-02T04:04:43;5.40;99.90
81902;DHT22;71369;50.796;3.290;2024-03-02T04:07:12;5.50;99.90
81902;DHT22;71369;50.796;3.290;2024-03-02T04:09:38;5.50;99.90
81902;DHT22;71369;50.796;3.290;2024-03-02T04:12:03;5.40;99.90
81902;DHT22;71369;50.796;3.290;2024-03-02T04:14:29;5.40;99.90
81902;DHT22;71369;50.796;3.290;2024-03-02T04:16:55;5.40;99.90
81902;DHT22;71369;50.796;3.290;2024-03-02T04:19:21;5.40;99.90
81902;DHT22;71369;50.796;3.290;2024-03-02T04:21:46;5.30;99.90
81902;DHT22;71369;50.796;3.290;2024-03-02T04:24:12;5.30;99.90
81902;DHT22;71369;50.796;3.290;2024-03-02T04:26:38;5.30;99.90
81902;DHT22;71369;50.796;3.290;2024-03-02T04:29:03;5.30;99.90
81902;DHT22;71369;50.796;3.290;2024-03-02T04:31:29;5.30;99.90
81902;DHT22;71369;50.796;3.290;2024-03-02T04:33:54;5.30;99.90
81902;DHT22;71369;50.796;3.290;2024-03-02T04:36:20;5.20;99.90
81902;DHT22;71369;50.796;3.290;2024-03-02T04:38:46;5.20;99.90
81902;DHT22;71369;50.796;3.290;2024-03-02T04:41:12;5.20;99.90
81902;DHT22;71369;50.796;3.290;2024-03-02T04:43:38;5.20;99.90
81902;DHT22;71369;50.796;3.290;2024-03-02T04:46:04;5.20;99.90
81902;DHT22;71369;50.796;3.290;2024-03-02T04:48:30;5.10;99.90
81902;DHT22;71369;50.796;3.290;2024-03-02T04:50:56;5.20;99.90
81902;DHT22;71369;50.796;3.290;2024-03-02T04:53:22;5.20;99.90
81902;DHT22;71369;50.796;3.290;2024-03-02T04:55:47;5.20;99.90
81902;DHT22;71369;50.796;3.290;2024-03-02T04:58:31;5.20;99.90
81902;DHT22;71369;50.796;3.290;2024-03-02T05:00:57;5.10;99.90
81902;DHT22;71369;50.796;3.290;2024-03-02T05:03:22;5.10;99.90
81902;DHT22;71369;50.796;3.290;2024-03-02T05:05:48;5.10;99.90
81902;DHT22;71369;50.796;3.290;2024-03-02T05:08:14;5.10;99.90
81902;DHT22;71369;50.796;3.290;2024-03-02T05:10:41;5.10;99.90
81902;DHT22;71369;50.796;3.290;2024-03-02T05:13:07;5.10;99.90
81902;DHT22;71369;50.796;3.290;2024-03-02T05:15:32;5.10;99.90
81902;DHT22;71369;50.796;3.290;2024-03-02T05:17:58;5.10;99.90
81902;DHT22;71369;50.796;3.290;2024-03-02T05:20:25;5.00;99.90
81902;DHT22;71369;50.796;3.290;2024-03-02T05:22:50;5.10;99.90
81902;DHT22;71369;50.796;3.290;2024-03-02T05:25:16;5.10;99.90
81902;DHT22;71369;50.796;3.290;2024-03-02T05:27:41;5.00;99.90
81902;DHT22;71369;50.796;3.290;2024-03-02T05:30:10;5.00;99.90
81902;DHT22;71369;50.796;3.290;2024-03-02T05:32:35;5.10;99.90
81902;DHT22;71369;50.796;3.290;2024-03-02T05:35:01;5.10;99.90
81902;DHT22;71369;50.796;3.290;2024-03-02T05:37:28;5.00;99.90
81902;DHT22;71369;50.796;3.290;2024-03-02T05:39:54;5.00;99.90
81902;DHT22;71369;50.796;3.290;2024-03-02T05:42:20;5.00;99.90
81902;DHT22;71369;50.796;3.290;2024-03-02T05:44:45;5.10;99.90
81902;DHT22;71369;50.796;3.290;2024-03-02T05:47:11;5.10;99.90
81902;DHT22;71369;50.796;3.290;2024-03-02T05:49:38;5.00;99.90
81902;DHT22;71369;50.796;3.290;2024-03-02T05:52:04;5.00;99.90
81902;DHT22;71369;50.796;3.290;2024-03-02T05:54:30;5.00;99.90
81902;DHT22;71369;50.796;3.290;2024-03-02T05:56:55;5.10;99.90
81902;DHT22;71369;50.796;3.290;2024-03-02T05:59:21;5.00;99.90
81902;DHT22;71369;50.796;3.290;2024-03-02T06:01:50;5.10;99.90
81902;DHT22;71369;50.796;3.290;2024-03-02T06:04:23;5.10;99.90
81902;DHT22;71369;50.796;3.290;2024-03-02T06:06:48;5.10;99.90
81902;DHT22;71369;50.796;3.290;2024-03-02T06:09:14;5.10;99.90
81902;DHT22;71369;50.796;3.290;2024-03-02T06:11:41;5.10;99.90
81902;DHT22;71369;50.796;3.290;2024-03-02T06:14:08;5.00;99.90
81902;DHT22;71369;50.796;3.290;2024-03-02T06:16:34;5.10;99.90
81902;DHT22;71369;50.796;3.290;2024-03-02T06:19:02;5.10;99.90
81902;DHT22;71369;50.796;3.290;2024-03-02T06:21:28;5.00;99.90
81902;DHT22;71369;50.796;3.290;2024-03-02T06:23:56;5.00;99.90
81902;DHT22;71369;50.796;3.290;2024-03-02T06:26:22;5.00;99.90
81902;DHT22;71369;50.796;3.290;2024-03-02T06:28:47;5.00;99.90
81902;DHT22;71369;50.796;3.290;2024-03-02T06:31:13;5.00;99.90
81902;DHT22;71369;50.796;3.290;2024-03-02T06:33:38;4.90;99.90
81902;DHT22;71369;50.796;3.290;2024-03-02T06:36:05;5.00;99.90
81902;DHT22;71369;50.796;3.290;2024-03-02T06:38:34;5.10;99.90
81902;DHT22;71369;50.796;3.290;2024-03-02T06:41:02;5.00;99.90
81902;DHT22;71369;50.796;3.290;2024-03-02T06:43:27;4.90;99.90
81902;DHT22;71369;50.796;3.290;2024-03-02T06:45:53;4.90;99.90
81902;DHT22;71369;50.796;3.290;2024-03-02T06:48:19;4.90;99.90
81902;DHT22;71369;50.796;3.290;2024-03-02T06:50:49;4.80;99.90
81902;DHT22;71369;50.796;3.290;2024-03-02T06:53:17;4.80;99.90
81902;DHT22;71369;50.796;3.290;2024-03-02T06:55:46;4.90;99.90
81902;DHT22;71369;50.796;3.290;2024-03-02T06:58:13;4.90;99.90
81902;DHT22;71369;50.796;3.290;2024-03-02T07:00:42;5.00;99.90
81902;DHT22;71369;50.796;3.290;2024-03-02T07:03:08;5.10;99.90
81902;DHT22;71369;50.796;3.290;2024-03-02T07:05:33;5.30;99.90
81902;DHT22;71369;50.796;3.290;2024-03-02T07:07:59;5.50;99.90
81902;DHT22;71369;50.796;3.290;2024-03-02T07:10:26;5.80;99.90
81902;DHT22;71369;50.796;3.290;2024-03-02T07:12:57;6.00;99.90
81902;DHT22;71369;50.796;3.290;2024-03-02T07:15:22;6.20;99.90
81902;DHT22;71369;50.796;3.290;2024-03-02T07:17:51;6.40;99.90
81902;DHT22;71369;50.796;3.290;2024-03-02T07:20:19;6.60;99.90
81902;DHT22;71369;50.796;3.290;2024-03-02T07:22:45;6.80;99.90
81902;DHT22;71369;50.796;3.290;2024-03-02T07:25:11;7.10;99.90
81902;DHT22;71369;50.796;3.290;2024-03-02T07:27:36;7.30;99.90
81902;DHT22;71369;50.796;3.290;2024-03-02T07:30:03;7.60;99.90
81902;DHT22;71369;50.796;3.290;2024-03-02T07:32:29;7.80;99.90
81902;DHT22;71369;50.796;3.290;2024-03-02T07:34:55;8.00;99.90
81902;DHT22;71369;50.796;3.290;2024-03-02T07:37:23;8.00;99.90
81902;DHT22;71369;50.796;3.290;2024-03-02T07:39:49;8.00;99.90
81902;DHT22;71369;50.796;3.290;2024-03-02T07:42:15;8.00;99.90
81902;DHT22;71369;50.796;3.290;2024-03-02T07:44:41;8.10;99.90
81902;DHT22;71369;50.796;3.290;2024-03-02T07:47:07;8.40;99.90
81902;DHT22;71369;50.796;3.290;2024-03-02T07:49:33;8.60;99.90
81902;DHT22;71369;50.796;3.290;2024-03-02T07:52:00;9.10;99.90
81902;DHT22;71369;50.796;3.290;2024-03-02T07:54:25;9.40;99.30
81902;DHT22;71369;50.796;3.290;2024-03-02T07:56:53;9.80;98.40
81902;DHT22;71369;50.796;3.290;2024-03-02T07:59:19;9.90;95.90
81902;DHT22;71369;50.796;3.290;2024-03-02T08:01:48;10.10;95.70
81902;DHT22;71369;50.796;3.290;2024-03-02T08:04:14;10.30;94.90
81902;DHT22;71369;50.796;3.290;2024-03-02T08:06:42;10.40;94.20
81902;DHT22;71369;50.796;3.290;2024-03-02T08:09:07;10.60;93.80
81902;DHT22;71369;50.796;3.290;2024-03-02T08:11:36;10.60;93.80
81902;DHT22;71369;50.796;3.290;2024-03-02T08:14:03;10.50;93.10
81902;DHT22;71369;50.796;3.290;2024-03-02T08:16:29;10.50;93.70
81902;DHT22;71369;50.796;3.290;2024-03-02T08:18:54;10.50;92.80
81902;DHT22;71369;50.796;3.290;2024-03-02T08:21:22;10.50;95.00
81902;DHT22;71369;50.796;3.290;2024-03-02T08:23:48;10.40;94.00
81902;DHT22;71369;50.796;3.290;2024-03-02T08:26:13;10.10;95.70
81902;DHT22;71369;50.796;3.290;2024-03-02T08:28:39;9.50;96.40
81902;DHT22;71369;50.796;3.290;2024-03-02T08:31:08;8.90;98.70
81902;DHT22;71369;50.796;3.290;2024-03-02T08:33:36;8.40;99.90
81902;DHT22;71369;50.796;3.290;2024-03-02T08:36:02;8.10;99.90
81902;DHT22;71369;50.796;3.290;2024-03-02T08:38:28;7.80;99.90
81902;DHT22;71369;50.796;3.290;2024-03-02T08:40:56;7.70;99.90
81902;DHT22;71369;50.796;3.290;2024-03-02T08:43:22;7.70;99.90
81902;DHT22;71369;50.796;3.290;2024-03-02T08:45:48;7.80;99.90
81902;DHT22;71369;50.796;3.290;2024-03-02T08:48:14;8.40;99.90
81902;DHT22;71369;50.796;3.290;2024-03-02T08:50:40;8.40;99.90
81902;DHT22;71369;50.796;3.290;2024-03-02T08:53:05;8.30;99.90
81902;DHT22;71369;50.796;3.290;2024-03-02T08:55:33;8.30;99.90
81902;DHT22;71369;50.796;3.290;2024-03-02T08:58:02;8.50;99.90
81902;DHT22;71369;50.796;3.290;2024-03-02T09:00:28;8.50;99.90
81902;DHT22;71369;50.796;3.290;2024-03-02T09:02:53;8.60;99.90
81902;DHT22;71369;50.796;3.290;2024-03-02T09:05:21;8.40;99.90
81902;DHT22;71369;50.796;3.290;2024-03-02T09:07:49;8.30;99.90
81902;DHT22;71369;50.796;3.290;2024-03-02T09:10:15;8.20;99.90
81902;DHT22;71369;50.796;3.290;2024-03-02T09:12:41;8.10;99.90
81902;DHT22;71369;50.796;3.290;2024-03-02T09:15:10;8.10;99.90
81902;DHT22;71369;50.796;3.290;2024-03-02T09:17:36;8.20;99.90
81902;DHT22;71369;50.796;3.290;2024-03-02T09:20:01;8.40;99.90
81902;DHT22;71369;50.796;3.290;2024-03-02T09:22:31;8.60;99.90
81902;DHT22;71369;50.796;3.290;2024-03-02T09:24:57;9.10;99.90
81902;DHT22;71369;50.796;3.290;2024-03-02T09:27:23;9.40;99.90
81902;DHT22;71369;50.796;3.290;2024-03-02T09:29:49;9.40;99.90
81902;DHT22;71369;50.796;3.290;2024-03-02T09:32:15;9.50;99.90
81902;DHT22;71369;50.796;3.290;2024-03-02T09:34:41;9.60;99.90
81902;DHT22;71369;50.796;3.290;2024-03-02T09:37:08;9.80;99.90
81902;DHT22;71369;50.796;3.290;2024-03-02T09:39:33;9.80;99.90
81902;DHT22;71369;50.796;3.290;2024-03-02T09:42:00;9.90;99.90
81902;DHT22;71369;50.796;3.290;2024-03-02T09:44:26;10.10;99.90
81902;DHT22;71369;50.796;3.290;2024-03-02T09:46:52;10.60;99.30
81902;DHT22;71369;50.796;3.290;2024-03-02T09:49:18;11.60;97.00
81902;DHT22;71369;50.796;3.290;2024-03-02T09:51:49;12.10;94.70
81902;DHT22;71369;50.796;3.290;2024-03-02T09:54:15;12.30;91.20
81902;DHT22;71369;50.796;3.290;2024-03-02T09:56:44;12.20;92.20
81902;DHT22;71369;50.796;3.290;2024-03-02T09:59:10;11.90;93.90
81902;DHT22;71369;50.796;3.290;2024-03-02T10:01:36;12.20;93.50
81902;DHT22;71369;50.796;3.290;2024-03-02T10:04:02;13.00;92.70
81902;DHT22;71369;50.796;3.290;2024-03-02T10:06:28;12.90;88.80
81902;DHT22;71369;50.796;3.290;2024-03-02T10:08:55;12.30;90.20
81902;DHT22;71369;50.796;3.290;2024-03-02T10:11:29;11.60;92.70
81902;DHT22;71369;50.796;3.290;2024-03-02T10:14:09;11.30;94.30
81902;DHT22;71369;50.796;3.290;2024-03-02T10:16:44;10.80;95.80
81902;DHT22;71369;50.796;3.290;2024-03-02T10:19:20;10.40;96.60
81902;DHT22;71369;50.796;3.290;2024-03-02T10:21:51;10.20;98.30
81902;DHT22;71369;50.796;3.290;2024-03-02T10:24:17;10.10;99.20
81902;DHT22;71369;50.796;3.290;2024-03-02T10:26:43;10.10;99.60
81902;DHT22;71369;50.796;3.290;2024-03-02T10:29:12;10.10;98.30
81902;DHT22;71369;50.796;3.290;2024-03-02T10:31:39;10.20;99.50
81902;DHT22;71369;50.796;3.290;2024-03-02T10:34:09;9.90;97.90
81902;DHT22;71369;50.796;3.290;2024-03-02T10:36:35;9.80;99.60
81902;DHT22;71369;50.796;3.290;2024-03-02T10:39:04;9.70;99.90
81902;DHT22;71369;50.796;3.290;2024-03-02T10:41:34;9.70;99.90
81902;DHT22;71369;50.796;3.290;2024-03-02T10:44:05;9.70;99.90
81902;DHT22;71369;50.796;3.290;2024-03-02T10:46:33;9.80;99.90
81902;DHT22;71369;50.796;3.290;2024-03-02T10:49:01;9.70;99.90
81902;DHT22;71369;50.796;3.290;2024-03-02T10:51:34;9.70;99.90
81902;DHT22;71369;50.796;3.290;2024-03-02T10:54:05;9.70;99.90
81902;DHT22;71369;50.796;3.290;2024-03-02T10:56:34;9.70;99.90
81902;DHT22;71369;50.796;3.290;2024-03-02T11:01:47;9.80;99.90
81902;DHT22;71369;50.796;3.290;2024-03-02T11:04:18;9.90;99.90
81902;DHT22;71369;50.796;3.290;2024-03-02T11:06:51;9.90;99.90
81902;DHT22;71369;50.796;3.290;2024-03-02T11:09:22;9.90;99.90
81902;DHT22;71369;50.796;3.290;2024-03-02T11:12:03;9.90;99.90
81902;DHT22;71369;50.796;3.290;2024-03-02T11:14:31;9.90;99.90
81902;DHT22;71369;50.796;3.290;2024-03-02T11:17:01;9.90;99.90
81902;DHT22;71369;50.796;3.290;2024-03-02T11:19:30;9.90;99.90
81902;DHT22;71369;50.796;3.290;2024-03-02T11:21:56;9.90;99.90
81902;DHT22;71369;50.796;3.290;2024-03-02T11:26:53;10.00;99.90
81902;DHT22;71369;50.796;3.290;2024-03-02T11:32:13;10.00;99.90
81902;DHT22;71369;50.796;3.290;2024-03-02T11:34:41;10.00;99.90
81902;DHT22;71369;50.796;3.290;2024-03-02T11:37:13;10.00;99.90
81902;DHT22;71369;50.796;3.290;2024-03-02T11:39:40;9.70;99.90
81902;DHT22;71369;50.796;3.290;2024-03-02T11:42:08;9.80;99.90
81902;DHT22;71369;50.796;3.290;2024-03-02T11:44:46;9.70;99.90
81902;DHT22;71369;50.796;3.290;2024-03-02T11:47:15;9.70;99.90
81902;DHT22;71369;50.796;3.290;2024-03-02T11:49:44;9.60;99.90
81902;DHT22;71369;50.796;3.290;2024-03-02T11:52:15;9.30;99.90
81902;DHT22;71369;50.796;3.290;2024-03-02T11:54:43;9.30;99.90
81902;DHT22;71369;50.796;3.290;2024-03-02T11:57:16;9.20;99.90
81902;DHT22;71369;50.796;3.290;2024-03-02T11:59:43;9.20;99.90
81902;DHT22;71369;50.796;3.290;2024-03-02T12:02:23;9.20;99.90
81902;DHT22;71369;50.796;3.290;2024-03-02T12:04:49;9.30;99.90
81902;DHT22;71369;50.796;3.290;2024-03-02T12:07:20;9.30;99.90
81902;DHT22;71369;50.796;3.290;2024-03-02T12:10:09;9.30;99.90
81902;DHT22;71369;50.796;3.290;2024-03-02T12:12:35;9.30;99.90
81902;DHT22;71369;50.796;3.290;2024-03-02T12:15:03;9.40;99.90
81902;DHT22;71369;50.796;3.290;2024-03-02T12:17:29;9.30;99.90
81902;DHT22;71369;50.796;3.290;2024-03-02T12:19:55;9.20;99.90
81902;DHT22;71369;50.796;3.290;2024-03-02T12:22:21;9.20;99.90
81902;DHT22;71369;50.796;3.290;2024-03-02T12:24:47;9.20;99.90
81902;DHT22;71369;50.796;3.290;2024-03-02T12:27:15;9.20;99.90
81902;DHT22;71369;50.796;3.290;2024-03-02T12:29:41;9.20;99.90
81902;DHT22;71369;50.796;3.290;2024-03-02T12:32:08;9.20;99.90
81902;DHT22;71369;50.796;3.290;2024-03-02T12:34:34;9.10;99.90
81902;DHT22;71369;50.796;3.290;2024-03-02T12:36:59;9.00;99.90
81902;DHT22;71369;50.796;3.290;2024-03-02T12:39:25;9.00;99.90
81902;DHT22;71369;50.796;3.290;2024-03-02T12:41:52;9.00;99.90
81902;DHT22;71369;50.796;3.290;2024-03-02T12:44:21;8.90;99.90
81902;DHT22;71369;50.796;3.290;2024-03-02T12:46:47;8.90;99.90
81902;DHT22;71369;50.796;3.290;2024-03-02T12:49:14;8.80;99.90
81902;DHT22;71369;50.796;3.290;2024-03-02T12:51:43;8.80;99.90
81902;DHT22;71369;50.796;3.290;2024-03-02T12:54:12;8.90;99.90
81902;DHT22;71369;50.796;3.290;2024-03-02T12:56:38;8.80;99.90
81902;DHT22;71369;50.796;3.290;2024-03-02T12:59:05;8.90;99.90
81902;DHT22;71369;50.796;3.290;2024-03-02T13:01:30;9.00;99.90
81902;DHT22;71369;50.796;3.290;2024-03-02T13:03:58;9.00;99.90
81902;DHT22;71369;50.796;3.290;2024-03-02T13:06:25;9.10;99.90
81902;DHT22;71369;50.796;3.290;2024-03-02T13:08:53;9.10;99.90
81902;DHT22;71369;50.796;3.290;2024-03-02T13:11:20;9.10;99.90
81902;DHT22;71369;50.796;3.290;2024-03-02T13:13:48;9.10;99.90
81902;DHT22;71369;50.796;3.290;2024-03-02T13:16:14;9.00;99.90
81902;DHT22;71369;50.796;3.290;2024-03-02T13:18:41;9.00;99.90
81902;DHT22;71369;50.796;3.290;2024-03-02T13:21:10;9.10;99.90
81902;DHT22;71369;50.796;3.290;2024-03-02T13:23:36;9.10;99.90
81902;DHT22;71369;50.796;3.290;2024-03-02T13:26:02;9.30;99.90
81902;DHT22;71369;50.796;3.290;2024-03-02T13:28:30;9.60;99.90
81902;DHT22;71369;50.796;3.290;2024-03-02T13:30:55;9.80;99.90
81902;DHT22;71369;50.796;3.290;2024-03-02T13:33:21;9.90;99.90
81902;DHT22;71369;50.796;3.290;2024-03-02T13:35:51;9.80;99.90
81902;DHT22;71369;50.796;3.290;2024-03-02T13:38:19;9.80;99.90
81902;DHT22;71369;50.796;3.290;2024-03-02T13:40:46;9.80;99.90
81902;DHT22;71369;50.796;3.290;2024-03-02T13:43:12;9.70;99.90
81902;DHT22;71369;50.796;3.290;2024-03-02T13:45:38;9.60;99.90
81902;DHT22;71369;50.796;3.290;2024-03-02T13:48:04;9.50;99.90
81902;DHT22;71369;50.796;3.290;2024-03-02T13:50:30;9.60;99.90
81902;DHT22;71369;50.796;3.290;2024-03-02T13:52:56;9.60;99.90
81902;DHT22;71369;50.796;3.290;2024-03-02T13:55:22;9.60;99.90
81902;DHT22;71369;50.796;3.290;2024-03-02T13:57:48;9.70;99.90
81902;DHT22;71369;50.796;3.290;2024-03-02T14:00:16;9.50;99.90
81902;DHT22;71369;50.796;3.290;2024-03-02T14:02:43;9.60;99.90
81902;DHT22;71369;50.796;3.290;2024-03-02T14:05:08;9.60;99.90
81902;DHT22;71369;50.796;3.290;2024-03-02T14:07:38;9.60;99.90
81902;DHT22;71369;50.796;3.290;2024-03-02T14:10:04;9.60;99.90
81902;DHT22;71369;50.796;3.290;2024-03-02T14:12:30;9.60;99.90
81902;DHT22;71369;50.796;3.290;2024-03-02T14:14:58;9.70;99.90
81902;DHT22;71369;50.796;3.290;2024-03-02T14:17:25;9.70;99.90
81902;DHT22;71369;50.796;3.290;2024-03-02T14:19:51;9.70;99.90
81902;DHT22;71369;50.796;3.290;2024-03-02T14:22:19;9.70;99.90
81902;DHT22;71369;50.796;3.290;2024-03-02T14:24:47;9.70;99.90
81902;DHT22;71369;50.796;3.290;2024-03-02T14:27:16;9.70;99.90
81902;DHT22;71369;50.796;3.290;2024-03-02T14:29:44;9.70;99.90
81902;DHT22;71369;50.796;3.290;2024-03-02T14:32:12;9.80;99.90
81902;DHT22;71369;50.796;3.290;2024-03-02T14:34:38;9.90;99.90
81902;DHT22;71369;50.796;3.290;2024-03-02T14:37:04;10.10;99.90
81902;DHT22;71369;50.796;3.290;2024-03-02T14:39:30;10.20;99.90
81902;DHT22;71369;50.796;3.290;2024-03-02T14:42:02;10.30;99.90
81902;DHT22;71369;50.796;3.290;2024-03-02T14:44:30;10.30;99.90
81902;DHT22;71369;50.796;3.290;2024-03-02T14:46:58;10.40;99.90
81902;DHT22;71369;50.796;3.290;2024-03-02T14:49:27;10.40;99.90
81902;DHT22;71369;50.796;3.290;2024-03-02T14:51:52;10.40;99.90
81902;DHT22;71369;50.796;3.290;2024-03-02T14:54:18;10.50;99.90
81902;DHT22;71369;50.796;3.290;2024-03-02T14:56:46;10.50;99.90
81902;DHT22;71369;50.796;3.290;2024-03-02T14:59:12;10.50;99.90
81902;DHT22;71369;50.796;3.290;2024-03-02T15:01:37;10.50;99.90
81902;DHT22;71369;50.796;3.290;2024-03-02T15:04:04;10.40;99.90
81902;DHT22;71369;50.796;3.290;2024-03-02T15:06:32;10.30;99.90
81902;DHT22;71369;50.796;3.290;2024-03-02T15:08:58;10.20;99.90
81902;DHT22;71369;50.796;3.290;2024-03-02T15:11:23;10.10;99.90
81902;DHT22;71369;50.796;3.290;2024-03-02T15:13:50;10.10;99.90
81902;DHT22;71369;50.796;3.290;2024-03-02T15:16:16;10.00;99.90
81902;DHT22;71369;50.796;3.290;2024-03-02T15:18:42;9.90;99.90
81902;DHT22;71369;50.796;3.290;2024-03-02T15:21:10;9.90;99.90
81902;DHT22;71369;50.796;3.290;2024-03-02T15:23:35;9.80;99.90
81902;DHT22;71369;50.796;3.290;2024-03-02T15:26:01;9.90;99.90
81902;DHT22;71369;50.796;3.290;2024-03-02T15:28:27;9.90;99.90
81902;DHT22;71369;50.796;3.290;2024-03-02T15:30:52;9.90;99.90
81902;DHT22;71369;50.796;3.290;2024-03-02T15:33:18;9.70;99.90
81902;DHT22;71369;50.796;3.290;2024-03-02T15:35:44;9.50;99.90
81902;DHT22;71369;50.796;3.290;2024-03-02T15:38:09;9.20;99.90
81902;DHT22;71369;50.796;3.290;2024-03-02T15:40:40;8.80;99.90
81902;DHT22;71369;50.796;3.290;2024-03-02T15:43:07;8.30;99.90
81902;DHT22;71369;50.796;3.290;2024-03-02T15:45:35;8.10;99.90
81902;DHT22;71369;50.796;3.290;2024-03-02T15:48:00;8.00;99.90
81902;DHT22;71369;50.796;3.290;2024-03-02T15:50:29;7.90;99.90
81902;DHT22;71369;50.796;3.290;2024-03-02T15:52:54;7.90;99.90
81902;DHT22;71369;50.796;3.290;2024-03-02T15:55:28;7.90;99.90
81902;DHT22;71369;50.796;3.290;2024-03-02T15:57:53;8.00;99.90